Time;durP1;ratioP1;P1;durP2;ratioP2;P2;SDS_P1;SDS_P2;PMS_P1;PMS_P2;Temp;Humidity;BMP_temperature;BMP_pressure;BME280_temperature;BME280_humidity;BME280_pressure;Samples;Min_cycle;Max_cycle;Signal;HPM_P1;HPM_P2
2022/07/10 00:02:21;;;;;;;1.97;1.83;;;15.70;99.90;;;;;;5042000;28;20459;-55
2022/07/10 00:04:48;;;;;;;2.67;2.40;;;15.60;99.90;;;;;;5041800;28;20470;-56
2022/07/10 00:07:15;;;;;;;1.70;1.60;;;15.60;99.90;;;;;;5041706;28;20437;-56
2022/07/10 00:09:42;;;;;;;2.30;2.10;;;15.60;99.90;;;;;;5041756;28;20475;-53
2022/07/10 00:12:09;;;;;;;3.43;1.93;;;15.60;99.90;;;;;;5041185;28;20437;-55
2022/07/10 00:14:37;;;;;;;3.10;1.90;;;15.60;99.90;;;;;;5041586;28;20436;-56
2022/07/10 00:17:04;;;;;;;1.67;1.57;;;15.50;99.90;;;;;;5041639;28;20660;-55
2022/07/10 00:19:31;;;;;;;2.00;1.90;;;15.50;99.90;;;;;;5041458;28;20650;-55
2022/07/10 00:21:58;;;;;;;2.03;1.83;;;15.40;99.90;;;;;;5041408;28;20435;-56
2022/07/10 00:24:26;;;;;;;1.80;1.70;;;15.30;99.90;;;;;;5041728;28;20502;-56
2022/07/10 00:26:53;;;;;;;2.38;2.17;;;15.20;99.90;;;;;;5041243;28;20439;-54
2022/07/10 00:29:20;;;;;;;4.60;2.47;;;15.00;99.90;;;;;;5041570;28;20229;-57
2022/07/10 00:31:47;;;;;;;2.10;2.00;;;15.00;99.90;;;;;;5041295;28;20434;-56
2022/07/10 00:34:15;;;;;;;2.58;2.28;;;14.80;99.90;;;;;;5041225;28;20217;-55
2022/07/10 00:36:43;;;;;;;2.92;2.30;;;14.80;99.90;;;;;;5041030;28;20269;-58
2022/07/10 00:39:10;;;;;;;2.72;2.47;;;14.60;99.90;;;;;;5041332;28;20304;-57
2022/07/10 00:41:38;;;;;;;2.40;2.20;;;14.60;99.90;;;;;;5040919;28;20416;-57
2022/07/10 00:44:05;;;;;;;2.45;2.25;;;14.70;99.90;;;;;;5041444;28;20479;-57
2022/07/10 00:46:33;;;;;;;2.60;2.40;;;14.60;99.90;;;;;;5040876;28;20239;-56
2022/07/10 00:49:00;;;;;;;6.07;2.83;;;14.50;99.90;;;;;;5040894;28;20225;-58
2022/07/10 00:51:29;;;;;;;3.25;2.95;;;14.50;99.90;;;;;;5041087;28;20447;-57
2022/07/10 00:53:57;;;;;;;3.67;2.80;;;14.40;99.90;;;;;;5040763;28;20305;-56
2022/07/10 00:56:26;;;;;;;2.65;2.45;;;14.50;99.90;;;;;;5043906;28;20201;-58
2022/07/10 00:58:54;;;;;;;4.18;3.78;;;14.40;99.90;;;;;;5047342;28;20201;-56
2022/07/10 01:01:22;;;;;;;4.20;2.80;;;14.40;99.90;;;;;;5041206;28;20213;-51
2022/07/10 01:03:50;;;;;;;4.10;3.70;;;14.40;99.90;;;;;;5040758;28;20418;-56
2022/07/10 01:06:18;;;;;;;2.97;2.65;;;14.40;99.90;;;;;;5040480;28;20636;-55
2022/07/10 01:08:46;;;;;;;4.22;3.13;;;14.40;99.90;;;;;;5040472;28;20200;-55
2022/07/10 01:11:14;;;;;;;3.30;3.00;;;14.40;99.90;;;;;;5039957;28;20211;-56
2022/07/10 01:13:43;;;;;;;5.20;2.70;;;14.20;99.90;;;;;;5040380;28;20231;-55
2022/07/10 01:16:11;;;;;;;5.07;3.58;;;14.20;99.90;;;;;;5040581;28;20203;-55
2022/07/10 01:18:39;;;;;;;4.65;2.80;;;14.20;99.90;;;;;;5039911;28;20485;-56
2022/07/10 01:21:26;;;;;;;3.45;3.15;;;14.20;99.90;;;;;;5040566;28;20209;-55
2022/07/10 01:23:53;;;;;;;3.28;3.05;;;14.10;99.90;;;;;;5040348;28;20263;-56
2022/07/10 01:26:23;;;;;;;4.05;3.53;;;14.00;99.90;;;;;;5040394;28;20382;-57
2022/07/10 01:28:52;;;;;;;7.78;4.43;;;14.00;99.90;;;;;;5040349;28;20506;-54
2022/07/10 01:31:26;;;;;;;6.00;5.32;;;13.90;99.90;;;;;;5040261;28;20195;-56
2022/07/10 01:33:55;;;;;;;6.65;4.57;;;13.90;99.90;;;;;;5040256;28;20389;-56
2022/07/10 01:36:23;;;;;;;4.85;4.03;;;13.90;99.90;;;;;;5040083;28;20197;-56
2022/07/10 01:38:54;;;;;;;3.55;2.58;;;13.80;99.90;;;;;;5040615;28;20196;-57
2022/07/10 01:41:23;;;;;;;3.65;3.35;;;13.80;99.90;;;;;;5040071;28;20245;-56
2022/07/10 01:43:51;;;;;;;7.18;3.50;;;13.80;99.90;;;;;;5039875;28;20295;-58
2022/07/10 01:46:19;;;;;;;3.03;2.72;;;13.80;99.90;;;;;;5040436;28;20206;-56
2022/07/10 01:48:46;;;;;;;3.35;3.05;;;13.80;99.90;;;;;;5040152;28;20414;-55
2022/07/10 01:51:14;;;;;;;5.40;3.90;;;13.70;99.90;;;;;;5040188;28;20234;-56
2022/07/10 01:53:41;;;;;;;3.13;2.88;;;13.70;99.90;;;;;;5039888;28;20232;-55
2022/07/10 01:56:14;;;;;;;5.20;3.65;;;13.70;99.90;;;;;;5039777;28;20242;-55
2022/07/10 01:58:41;;;;;;;3.95;3.58;;;13.60;99.90;;;;;;5039764;28;20540;-55
2022/07/10 02:01:09;;;;;;;3.40;3.17;;;13.60;99.90;;;;;;5039748;28;20515;-56
2022/07/10 02:06:23;;;;;;;6.35;3.85;;;13.50;99.90;;;;;;5039844;28;20234;-55
2022/07/10 02:08:51;;;;;;;4.32;3.70;;;13.50;99.90;;;;;;5039449;28;20204;-56
2022/07/10 02:11:18;;;;;;;4.82;3.63;;;13.50;99.90;;;;;;5039951;28;20200;-57
2022/07/10 02:13:46;;;;;;;4.22;3.35;;;13.40;99.90;;;;;;5039658;28;20216;-57
2022/07/10 02:16:14;;;;;;;4.13;3.72;;;13.50;99.90;;;;;;5039780;28;20262;-55
2022/07/10 02:18:42;;;;;;;3.30;3.00;;;13.50;99.90;;;;;;5046850;28;20247;-57
2022/07/10 02:21:10;;;;;;;3.80;3.50;;;13.50;99.90;;;;;;5043748;28;20224;-54
2022/07/10 02:23:39;;;;;;;3.88;3.50;;;13.60;99.90;;;;;;5039721;28;20236;-55
2022/07/10 02:26:06;;;;;;;4.20;3.55;;;13.70;99.90;;;;;;5040278;28;20222;-57
2022/07/10 02:28:33;;;;;;;4.97;3.92;;;13.70;99.90;;;;;;5040832;28;20210;-55
2022/07/10 02:31:04;;;;;;;8.75;4.72;;;13.60;99.90;;;;;;5039575;28;20255;-55
2022/07/10 02:33:32;;;;;;;4.25;3.78;;;13.80;99.90;;;;;;5039547;28;20238;-53
2022/07/10 02:35:59;;;;;;;3.95;3.58;;;13.80;99.90;;;;;;5039431;28;20507;-56
2022/07/10 02:38:27;;;;;;;4.70;4.30;;;13.80;99.90;;;;;;5039519;28;20514;-55
2022/07/10 02:40:54;;;;;;;4.20;3.80;;;13.90;99.90;;;;;;5039892;28;20276;-55
2022/07/10 02:43:22;;;;;;;5.60;3.67;;;13.90;99.90;;;;;;5039974;28;20251;-53
2022/07/10 02:45:49;;;;;;;6.63;4.10;;;13.90;99.90;;;;;;5039318;28;20376;-53
2022/07/10 02:48:17;;;;;;;3.75;3.40;;;13.90;99.90;;;;;;5039211;28;20223;-52
2022/07/10 02:50:45;;;;;;;3.22;2.92;;;13.90;99.90;;;;;;5039019;28;20280;-55
2022/07/10 02:53:12;;;;;;;3.70;3.20;;;14.00;99.90;;;;;;5039211;28;20412;-54
2022/07/10 02:55:39;;;;;;;3.17;2.80;;;14.00;99.90;;;;;;5038987;28;20197;-57
2022/07/10 02:58:09;;;;;;;5.43;3.50;;;14.10;99.90;;;;;;5039262;28;20368;-53
2022/07/10 03:00:36;;;;;;;3.45;3.05;;;14.10;99.90;;;;;;5038995;28;20209;-57
2022/07/10 03:03:04;;;;;;;2.60;2.40;;;14.00;99.90;;;;;;5039193;28;20244;-57
2022/07/10 03:05:31;;;;;;;3.30;3.00;;;13.90;99.90;;;;;;5021953;28;20231;-55
2022/07/10 03:07:59;;;;;;;6.93;3.67;;;13.80;99.90;;;;;;5039048;28;20214;-51
2022/07/10 03:10:26;;;;;;;4.90;4.00;;;13.70;99.90;;;;;;5039510;28;20232;-53
2022/07/10 03:12:53;;;;;;;3.38;3.08;;;13.50;99.90;;;;;;5038748;28;20222;-54
2022/07/10 03:15:20;;;;;;;4.38;3.97;;;13.50;99.90;;;;;;5039025;28;20243;-57
2022/07/10 03:17:48;;;;;;;4.85;3.38;;;13.40;99.90;;;;;;5038758;28;20208;-57
2022/07/10 03:20:15;;;;;;;3.65;3.10;;;13.40;99.90;;;;;;5039370;28;20200;-55
2022/07/10 03:22:45;;;;;;;4.40;3.92;;;13.40;99.90;;;;;;5038369;28;20216;-55
2022/07/10 03:25:13;;;;;;;3.47;3.17;;;13.40;99.90;;;;;;5039278;28;20204;-54
2022/07/10 03:27:40;;;;;;;3.20;2.95;;;13.40;99.90;;;;;;5038657;28;20201;-56
2022/07/10 03:30:08;;;;;;;3.90;3.60;;;13.30;99.90;;;;;;5039111;28;20291;-54
2022/07/10 03:32:35;;;;;;;5.32;3.30;;;13.30;99.90;;;;;;5039563;28;20220;-56
2022/07/10 03:35:03;;;;;;;3.92;3.63;;;13.40;99.90;;;;;;5040963;28;20208;-54
2022/07/10 03:37:30;;;;;;;4.15;3.28;;;13.40;99.90;;;;;;5042672;28;20200;-54
2022/07/10 03:39:57;;;;;;;3.50;3.20;;;13.40;99.90;;;;;;5043668;28;20303;-57
2022/07/10 03:44:56;;;;;;;4.22;3.28;;;13.60;99.90;;;;;;4962645;28;20326;-52
2022/07/10 03:47:23;;;;;;;3.13;2.65;;;13.80;99.90;;;;;;4964553;29;20230;-50
2022/07/10 03:49:51;;;;;;;3.10;2.63;;;14.00;99.90;;;;;;4964831;29;20261;-54
2022/07/10 03:52:18;;;;;;;2.80;2.60;;;14.20;99.90;;;;;;4964460;29;20207;-53
2022/07/10 03:54:45;;;;;;;2.70;2.50;;;14.40;99.90;;;;;;4964799;28;20220;-50
2022/07/10 03:59:57;;;;;;;2.78;2.38;;;15.00;99.90;;;;;;4965042;29;20243;-49
2022/07/10 04:02:24;;;;;;;2.97;2.63;;;15.40;99.90;;;;;;4964847;29;20281;-51
2022/07/10 04:04:52;;;;;;;2.50;2.30;;;15.60;99.90;;;;;;4964779;28;20214;-52
2022/07/10 04:07:19;;;;;;;3.67;2.37;;;15.50;99.90;;;;;;4964957;29;20466;-55
2022/07/10 04:09:47;;;;;;;3.35;1.98;;;15.40;99.90;;;;;;4964165;29;20861;-54
2022/07/10 04:12:14;;;;;;;2.50;2.10;;;15.30;99.90;;;;;;4964744;29;20224;-54
2022/07/10 04:14:41;;;;;;;3.23;2.10;;;15.10;99.90;;;;;;4964234;28;20224;-52
2022/07/10 04:17:08;;;;;;;2.30;2.10;;;15.10;99.90;;;;;;4964278;29;20795;-49
2022/07/10 04:19:36;;;;;;;2.60;2.30;;;15.20;99.90;;;;;;4964568;29;20440;-48
2022/07/10 04:22:03;;;;;;;3.67;2.25;;;15.30;99.90;;;;;;4964344;28;20442;-48
2022/07/10 04:24:31;;;;;;;5.70;3.50;;;15.10;99.90;;;;;;4963696;28;20225;-50
2022/07/10 04:26:58;;;;;;;3.60;1.70;;;14.90;99.90;;;;;;4963539;28;20201;-50
2022/07/10 04:29:25;;;;;;;5.63;2.13;;;14.90;99.90;;;;;;4964199;29;20204;-51
2022/07/10 04:31:53;;;;;;;2.95;1.73;;;15.00;99.90;;;;;;4964125;28;20462;-51
2022/07/10 04:34:20;;;;;;;2.80;2.60;;;15.30;99.90;;;;;;4963647;28;20287;-49
2022/07/10 04:36:47;;;;;;;2.67;2.03;;;15.40;99.90;;;;;;4963889;29;20202;-50
2022/07/10 04:39:15;;;;;;;3.13;1.92;;;15.50;99.90;;;;;;4964318;28;20200;-48
2022/07/10 04:41:42;;;;;;;1.95;1.40;;;15.60;99.90;;;;;;4964303;29;20216;-54
2022/07/10 04:44:09;;;;;;;4.13;1.73;;;15.70;99.90;;;;;;4963396;28;20233;-49
2022/07/10 04:46:36;;;;;;;2.60;1.70;;;15.60;99.90;;;;;;4963591;28;20502;-50
2022/07/10 04:49:04;;;;;;;2.57;1.43;;;15.50;99.90;;;;;;4963429;28;20458;-48
2022/07/10 04:51:31;;;;;;;3.95;1.83;;;15.30;99.90;;;;;;4963316;29;20467;-52
2022/07/10 04:53:58;;;;;;;1.80;1.70;;;15.20;99.90;;;;;;4964054;28;20275;-50
2022/07/10 04:56:31;;;;;;;1.83;1.55;;;15.30;99.90;;;;;;4963354;29;20439;-55
2022/07/10 04:58:59;;;;;;;3.97;1.50;;;15.40;99.90;;;;;;4963262;29;20542;-53
2022/07/10 05:01:26;;;;;;;4.32;1.70;;;15.40;99.90;;;;;;4964412;29;20267;-48
2022/07/10 05:03:53;;;;;;;4.03;2.00;;;15.40;99.90;;;;;;4963610;28;20229;-50
2022/07/10 05:06:21;;;;;;;2.20;1.90;;;15.40;99.90;;;;;;4963572;29;20208;-49
2022/07/10 05:08:49;;;;;;;2.28;1.65;;;15.50;99.90;;;;;;4963874;29;20205;-51
2022/07/10 05:11:20;;;;;;;1.60;1.50;;;15.80;99.90;;;;;;4963879;29;20257;-52
2022/07/10 05:13:48;;;;;;;6.47;2.28;;;16.20;99.90;;;;;;4963449;28;20562;-50
2022/07/10 05:16:16;;;;;;;2.20;1.73;;;16.40;99.90;;;;;;4963241;28;20588;-50
2022/07/10 05:18:46;;;;;;;4.63;2.80;;;16.60;99.90;;;;;;4963436;28;20512;-51
2022/07/10 05:21:14;;;;;;;2.63;1.23;;;16.60;99.90;;;;;;4963064;29;20433;-50
2022/07/10 05:23:41;;;;;;;3.70;1.97;;;16.50;99.90;;;;;;4962718;28;20476;-50
2022/07/10 05:26:09;;;;;;;3.30;2.73;;;16.40;99.90;;;;;;4963015;29;20667;-47
2022/07/10 05:28:36;;;;;;;3.07;1.67;;;16.30;99.90;;;;;;4962436;29;20487;-52
2022/07/10 05:31:04;;;;;;;1.73;1.63;;;16.30;99.90;;;;;;4962514;28;20699;-53
2022/07/10 05:33:32;;;;;;;2.37;1.60;;;16.50;99.90;;;;;;4962239;28;20514;-53
2022/07/10 05:35:59;;;;;;;6.50;1.37;;;16.50;99.90;;;;;;4962141;28;20473;-51
2022/07/10 05:38:26;;;;;;;5.27;1.53;;;16.40;99.90;;;;;;4962858;29;20440;-51
2022/07/10 05:40:57;;;;;;;2.73;1.63;;;16.60;99.90;;;;;;4962562;29;20801;-54
2022/07/10 05:43:25;;;;;;;1.13;1.03;;;16.80;99.90;;;;;;4962212;28;20459;-49
2022/07/10 05:45:52;;;;;;;1.40;1.20;;;16.60;99.90;;;;;;4962662;29;20447;-53
2022/07/10 05:48:24;;;;;;;0.90;0.87;;;16.40;99.90;;;;;;4962294;29;20439;-52
2022/07/10 05:50:52;;;;;;;1.73;1.40;;;16.20;99.90;;;;;;4961934;29;20471;-51
2022/07/10 05:53:19;;;;;;;3.17;1.20;;;16.20;99.90;;;;;;4962233;28;20456;-53
2022/07/10 05:55:48;;;;;;;2.07;1.50;;;16.60;99.90;;;;;;4962350;28;20823;-55
2022/07/10 05:58:16;;;;;;;2.53;1.33;;;17.00;99.90;;;;;;4961286;28;20524;-50
2022/07/10 06:00:45;;;;;;;2.23;1.43;;;17.40;99.90;;;;;;4962299;29;20440;-52
2022/07/10 06:03:12;;;;;;;1.43;0.90;;;17.60;99.90;;;;;;4962174;28;20780;-51
2022/07/10 06:05:40;;;;;;;1.37;1.27;;;17.70;99.90;;;;;;4961911;29;20443;-53
2022/07/10 06:08:07;;;;;;;3.70;2.00;;;17.90;99.90;;;;;;4962458;29;20436;-52
2022/07/10 06:10:34;;;;;;;5.63;1.40;;;18.30;99.90;;;;;;4962011;29;20495;-53
2022/07/10 06:13:01;;;;;;;1.53;1.43;;;18.60;99.90;;;;;;4962141;28;20510;-51
2022/07/10 06:15:29;;;;;;;2.43;1.10;;;18.50;99.90;;;;;;4962156;29;20631;-52
2022/07/10 06:17:57;;;;;;;1.67;1.57;;;18.10;99.90;;;;;;4962330;28;20778;-52
2022/07/10 06:20:25;;;;;;;1.17;1.07;;;17.80;99.90;;;;;;4962328;28;20471;-49
2022/07/10 06:22:53;;;;;;;3.30;1.43;;;17.70;99.90;;;;;;4962008;28;20480;-49
2022/07/10 06:25:21;;;;;;;1.20;1.10;;;17.50;99.90;;;;;;4962464;29;20452;-54
2022/07/10 06:27:48;;;;;;;1.83;1.10;;;17.80;99.90;;;;;;4962406;28;20432;-53
2022/07/10 06:30:16;;;;;;;2.90;1.43;;;18.20;99.90;;;;;;4961381;29;20535;-51
2022/07/10 06:32:44;;;;;;;2.37;1.50;;;18.60;99.90;;;;;;4962084;28;20444;-53
2022/07/10 06:35:11;;;;;;;0.90;0.90;;;18.90;99.90;;;;;;4962002;29;20440;-53
2022/07/10 06:37:39;;;;;;;6.43;2.50;;;18.80;99.90;;;;;;4961275;28;20686;-52
2022/07/10 06:40:06;;;;;;;2.93;1.27;;;18.70;99.90;;;;;;4961863;29;20437;-51
2022/07/10 06:42:34;;;;;;;2.20;1.60;;;18.80;99.90;;;;;;4962162;28;20433;-52
2022/07/10 06:45:01;;;;;;;1.23;0.80;;;19.00;99.90;;;;;;4962005;29;20815;-47
2022/07/10 06:50:14;;;;;;;2.27;1.17;;;19.30;99.90;;;;;;4961420;29;20431;-53
2022/07/10 06:52:42;;;;;;;1.60;1.50;;;19.90;99.90;;;;;;4961844;28;20500;-49
2022/07/10 06:55:09;;;;;;;3.80;1.27;;;20.30;99.90;;;;;;4961688;28;20412;-53
2022/07/10 06:57:38;;;;;;;2.40;1.40;;;20.20;99.90;;;;;;4962086;28;20680;-50
2022/07/10 07:00:06;;;;;;;3.23;1.80;;;19.80;99.90;;;;;;4961204;29;20440;-49
2022/07/10 07:02:34;;;;;;;3.77;1.53;;;19.40;99.90;;;;;;4961262;28;20421;-50
2022/07/10 07:05:01;;;;;;;1.00;0.90;;;19.00;99.90;;;;;;4961291;28;20473;-51
2022/07/10 07:07:29;;;;;;;1.93;1.40;;;19.00;99.90;;;;;;4961645;29;20653;-51
2022/07/10 07:09:56;;;;;;;1.03;0.93;;;19.10;99.90;;;;;;4962741;28;20516;-52
2022/07/10 07:12:23;;;;;;;5.70;1.40;;;19.00;99.90;;;;;;4965168;28;20864;-51
2022/07/10 07:14:50;;;;;;;1.43;1.07;;;18.90;99.90;;;;;;4964672;28;20476;-50
2022/07/10 07:17:25;;;;;;;1.10;1.00;;;18.70;99.90;;;;;;4965329;28;20788;-55
2022/07/10 07:25:27;;;;;;;1.90;1.17;;;18.30;99.90;;;;;;4964664;29;20433;-51
2022/07/10 07:27:55;;;;;;;1.33;1.23;;;18.30;99.90;;;;;;4964814;29;20511;-52
2022/07/10 07:30:23;;;;;;;1.83;1.43;;;18.30;99.90;;;;;;4964673;28;20470;-51
2022/07/10 07:32:50;;;;;;;3.03;1.17;;;18.20;99.90;;;;;;4964952;28;20831;-52
2022/07/10 07:35:17;;;;;;;3.63;1.23;;;18.20;99.90;;;;;;4963453;29;20436;-54
2022/07/10 07:37:48;;;;;;;3.30;1.47;;;18.20;99.90;;;;;;4964842;29;20430;-51
2022/07/10 07:40:22;;;;;;;1.93;1.10;;;18.00;99.90;;;;;;4964827;28;20447;-50
2022/07/10 07:42:50;;;;;;;3.50;1.50;;;18.20;99.90;;;;;;4964839;28;20639;-53
2022/07/10 07:45:18;;;;;;;1.37;1.00;;;18.10;99.90;;;;;;4979354;28;20443;-48
2022/07/10 07:47:50;;;;;;;3.07;1.60;;;17.90;99.90;;;;;;4964683;29;20480;-48
2022/07/10 07:50:23;;;;;;;2.30;1.30;;;17.70;99.90;;;;;;4964114;28;20456;-56
2022/07/10 07:52:50;;;;;;;1.47;1.10;;;17.80;99.90;;;;;;4964822;28;20456;-51
2022/07/10 07:55:19;;;;;;;1.43;1.10;;;18.30;99.90;;;;;;4964664;29;20439;-54
2022/07/10 07:57:46;;;;;;;3.63;2.37;;;18.80;99.90;;;;;;4964861;29;20442;-51
2022/07/10 08:00:17;;;;;;;2.67;1.60;;;19.10;99.90;;;;;;4964565;28;20846;-52
2022/07/10 08:02:45;;;;;;;3.57;1.20;;;19.20;99.90;;;;;;4964841;28;20437;-54
2022/07/10 08:05:12;;;;;;;3.10;1.10;;;19.20;99.90;;;;;;4964011;29;20432;-53
2022/07/10 08:07:45;;;;;;;2.87;1.10;;;19.00;99.90;;;;;;4964488;29;20488;-50
2022/07/10 08:10:16;;;;;;;3.37;1.60;;;18.70;99.90;;;;;;4964086;28;20431;-50
2022/07/10 08:12:45;;;;;;;1.53;1.33;;;21.00;99.90;;;;;;4963882;28;20508;-52
2022/07/10 08:15:15;;;;;;;2.90;2.03;;;22.10;99.90;;;;;;4964119;28;20423;-51
2022/07/10 08:17:42;;;;;;;3.67;1.77;;;21.90;99.90;;;;;;4964047;28;20806;-53
2022/07/10 08:20:13;;;;;;;1.40;1.07;;;24.20;99.90;;;;;;4963660;28;20408;-52
2022/07/10 08:22:41;;;;;;;2.33;1.20;;;27.30;99.90;;;;;;4964152;28;20437;-52
2022/07/10 08:25:10;;;;;;;1.67;1.57;;;28.30;95.10;;;;;;4964191;29;20484;-52
2022/07/10 08:27:37;;;;;;;1.20;1.10;;;27.20;95.50;;;;;;4963701;28;20511;-52
2022/07/10 08:30:09;;;;;;;2.20;1.10;;;26.50;95.60;;;;;;4963708;28;20625;-51
2022/07/10 08:32:37;;;;;;;2.03;1.30;;;24.90;97.70;;;;;;4963345;28;20477;-50
2022/07/10 08:35:06;;;;;;;6.30;1.27;;;22.60;99.90;;;;;;4963822;29;20456;-47
2022/07/10 08:37:40;;;;;;;1.17;1.07;;;21.00;99.90;;;;;;4963931;28;20424;-53
2022/07/10 08:40:10;;;;;;;3.30;1.07;;;20.10;99.90;;;;;;4963115;29;20416;-53
2022/07/10 08:42:37;;;;;;;2.90;0.90;;;19.60;99.90;;;;;;4962715;28;20445;-50
2022/07/10 08:45:06;;;;;;;1.07;0.90;;;19.40;99.90;;;;;;4963086;28;20433;-53
2022/07/10 08:47:38;;;;;;;3.43;1.33;;;19.50;99.90;;;;;;4963373;28;20497;-50
2022/07/10 08:50:17;;;;;;;1.27;1.03;;;19.20;99.90;;;;;;4963267;28;20690;-49
2022/07/10 08:52:58;;;;;;;1.40;1.30;;;18.80;99.90;;;;;;4963631;28;20508;-49
2022/07/10 08:55:26;;;;;;;4.30;1.60;;;18.80;99.90;;;;;;4963448;28;20835;-52
2022/07/10 08:57:58;;;;;;;3.27;1.40;;;19.10;99.90;;;;;;4963156;28;20440;-48
2022/07/10 09:00:25;;;;;;;1.83;0.83;;;19.50;99.90;;;;;;4963430;28;20632;-51
2022/07/10 09:02:56;;;;;;;3.53;1.17;;;19.70;99.90;;;;;;4963093;28;20428;-53
2022/07/10 09:05:25;;;;;;;2.80;2.13;;;19.50;99.90;;;;;;4962881;29;20445;-52
2022/07/10 09:07:53;;;;;;;0.70;0.70;;;19.50;99.90;;;;;;4963204;28;20425;-52
2022/07/10 09:10:24;;;;;;;1.33;1.23;;;20.20;99.90;;;;;;4963016;28;20770;-55
2022/07/10 09:12:57;;;;;;;3.93;1.50;;;21.80;99.90;;;;;;4962635;28;20492;-54
2022/07/10 09:15:32;;;;;;;2.20;1.10;;;22.00;99.90;;;;;;4963154;29;20781;-52
2022/07/10 09:18:02;;;;;;;1.53;1.00;;;20.50;99.90;;;;;;4962683;28;20441;-50
2022/07/10 09:20:32;;;;;;;2.70;1.40;;;19.40;99.90;;;;;;4963159;28;20500;-54
2022/07/10 09:23:16;;;;;;;3.20;2.20;;;18.80;99.90;;;;;;4963443;28;20461;-52
2022/07/10 09:25:47;;;;;;;1.67;1.57;;;18.60;99.90;;;;;;4963505;28;20492;-52
2022/07/10 09:28:18;;;;;;;2.63;1.10;;;20.10;99.90;;;;;;4963021;28;20628;-54
2022/07/10 09:30:47;;;;;;;3.47;0.70;;;23.10;99.90;;;;;;4962341;29;20663;-53
2022/07/10 09:33:25;;;;;;;0.80;0.80;;;22.30;99.90;;;;;;4961506;28;20488;-50
2022/07/10 09:36:05;;;;;;;1.30;0.83;;;20.10;99.90;;;;;;4962872;29;20745;-52
2022/07/10 09:38:44;;;;;;;0.90;0.80;;;18.80;99.90;;;;;;4962449;29;20463;-54
2022/07/10 09:41:14;;;;;;;0.63;0.50;;;18.10;99.90;;;;;;4962580;29;20436;-51
2022/07/10 09:43:47;;;;;;;1.50;0.90;;;17.80;99.90;;;;;;5001861;22;20833;-58
2022/07/10 09:46:16;;;;;;;0.70;0.60;;;17.80;99.90;;;;;;5020223;28;20439;-56
2022/07/10 09:48:44;;;;;;;0.87;0.87;;;17.60;99.90;;;;;;5020221;28;20653;-58
2022/07/10 09:51:11;;;;;;;1.40;1.30;;;17.40;99.90;;;;;;5020011;28;20479;-58
2022/07/10 09:53:43;;;;;;;1.70;1.00;;;17.60;99.90;;;;;;5020059;28;20458;-55
2022/07/10 09:56:12;;;;;;;2.03;0.87;;;18.10;99.90;;;;;;5020217;28;20649;-56
2022/07/10 09:58:40;;;;;;;0.57;0.57;;;18.10;99.90;;;;;;5020000;28;20434;-56
2022/07/10 10:01:09;;;;;;;0.90;0.80;;;18.00;99.90;;;;;;5020677;28;20757;-57
2022/07/10 10:03:38;;;;;;;2.20;1.00;;;18.60;99.90;;;;;;5020145;28;20685;-55
2022/07/10 10:06:15;;;;;;;3.43;0.87;;;19.20;99.90;;;;;;5019991;28;20438;-57
2022/07/10 10:08:59;;;;;;;3.17;1.67;;;19.90;99.90;;;;;;5020627;28;20445;-59
2022/07/10 10:11:28;;;;;;;3.60;1.20;;;20.70;99.90;;;;;;5020508;28;20440;-55
2022/07/10 10:13:56;;;;;;;1.07;0.97;;;20.80;99.90;;;;;;5020652;28;20812;-56
2022/07/10 10:16:25;;;;;;;1.30;1.03;;;20.70;99.90;;;;;;5020424;28;20772;-59
2022/07/10 10:21:40;;;;;;;3.37;1.33;;;20.80;99.90;;;;;;5020057;28;20752;-57
2022/07/10 10:24:08;;;;;;;2.93;1.20;;;21.20;99.90;;;;;;5020217;28;20484;-57
2022/07/10 10:26:38;;;;;;;2.30;1.43;;;21.10;99.90;;;;;;5019323;28;20638;-55
2022/07/10 10:29:07;;;;;;;1.10;0.97;;;20.80;99.90;;;;;;5019592;28;20782;-57
2022/07/10 10:31:35;;;;;;;1.10;1.07;;;19.80;99.90;;;;;;5019559;28;20512;-59
2022/07/10 10:34:02;;;;;;;1.60;1.50;;;19.10;99.90;;;;;;5019885;28;20446;-57
2022/07/10 10:36:32;;;;;;;1.57;1.00;;;18.20;99.90;;;;;;5019703;28;20674;-58
2022/07/10 10:39:01;;;;;;;2.77;1.40;;;17.80;99.90;;;;;;5019806;28;20820;-57
2022/07/10 10:41:50;;;;;;;1.73;1.50;;;18.00;99.90;;;;;;5019172;28;20440;-57
2022/07/10 10:44:18;;;;;;;3.07;1.63;;;18.40;99.90;;;;;;5021820;28;20773;-59
2022/07/10 10:46:54;;;;;;;1.10;1.10;;;19.60;99.90;;;;;;5023446;28;20437;-57
2022/07/10 10:49:23;;;;;;;2.50;1.83;;;20.20;99.90;;;;;;5023894;28;20441;-55
2022/07/10 10:52:04;;;;;;;1.50;1.40;;;20.20;99.90;;;;;;5025715;28;20542;-60
2022/07/10 10:54:57;;;;;;;3.10;1.00;;;19.90;99.90;;;;;;5030391;28;20453;-59
2022/07/10 10:57:43;;;;;;;1.43;1.30;;;19.60;99.90;;;;;;5031281;28;20495;-57
2022/07/10 11:00:14;;;;;;;4.40;0.90;;;19.40;99.90;;;;;;5030567;28;20422;-58
2022/07/10 11:02:44;;;;;;;1.10;1.00;;;19.50;99.90;;;;;;5023716;28;20432;-58
2022/07/10 11:05:18;;;;;;;2.00;1.03;;;19.90;99.90;;;;;;5023508;28;20451;-57
2022/07/10 11:08:00;;;;;;;0.60;0.60;;;19.80;99.90;;;;;;5023517;28;20438;-56
2022/07/10 11:10:43;;;;;;;1.43;0.93;;;19.30;99.90;;;;;;5023534;28;20441;-56
2022/07/10 11:13:18;;;;;;;0.80;0.80;;;18.70;99.90;;;;;;5023476;28;20806;-56
2022/07/10 11:15:47;;;;;;;1.60;0.80;;;18.20;99.90;;;;;;5023359;28;20514;-57
2022/07/10 11:18:17;;;;;;;0.80;0.77;;;18.20;99.90;;;;;;5006183;28;20434;-54
2022/07/10 11:20:49;;;;;;;1.83;0.90;;;18.40;99.90;;;;;;5023239;28;20600;-54
2022/07/10 11:23:38;;;;;;;2.20;0.80;;;19.20;99.90;;;;;;5022893;28;20617;-56
2022/07/10 11:26:20;;;;;;;1.43;0.90;;;20.40;99.90;;;;;;5026705;28;20641;-57
2022/07/10 11:28:53;;;;;;;1.37;0.77;;;21.10;99.90;;;;;;5028064;28;20431;-58
2022/07/10 11:31:25;;;;;;;0.70;0.70;;;21.20;99.90;;;;;;5027964;28;20790;-58
2022/07/10 11:33:56;;;;;;;1.40;0.80;;;21.10;99.90;;;;;;5026842;28;20495;-57
2022/07/10 11:36:30;;;;;;;1.43;1.33;;;20.80;99.90;;;;;;5029153;28;20431;-59
2022/07/10 11:38:59;;;;;;;1.10;1.00;;;20.70;99.90;;;;;;5029000;28;20545;-57
2022/07/10 11:41:27;;;;;;;1.93;1.00;;;20.60;99.90;;;;;;5025878;28;20416;-59
2022/07/10 11:44:00;;;;;;;6.40;1.10;;;20.40;99.90;;;;;;5025281;28;20463;-60
2022/07/10 11:46:32;;;;;;;4.60;0.80;;;19.90;99.90;;;;;;5023609;28;20450;-56
2022/07/10 11:49:08;;;;;;;1.37;1.27;;;19.40;99.90;;;;;;5022913;28;20454;-58
2022/07/10 11:51:39;;;;;;;2.57;1.40;;;19.00;99.90;;;;;;5023357;28;20624;-58
2022/07/10 11:54:10;;;;;;;3.07;1.50;;;18.90;99.90;;;;;;5022383;28;20476;-57
2022/07/10 11:56:41;;;;;;;2.33;1.33;;;18.90;99.90;;;;;;5021689;28;21009;-57
2022/07/10 11:59:14;;;;;;;3.60;2.33;;;19.00;99.90;;;;;;5022878;28;20489;-57
2022/07/10 12:01:47;;;;;;;3.57;1.10;;;19.10;99.90;;;;;;5022791;28;20870;-58
2022/07/10 12:04:16;;;;;;;3.00;1.10;;;19.00;99.90;;;;;;5022717;28;20429;-55
2022/07/10 12:06:49;;;;;;;2.80;1.20;;;18.60;99.90;;;;;;5022322;28;20437;-59
2022/07/10 12:09:18;;;;;;;1.53;1.00;;;17.60;99.90;;;;;;5022736;28;20445;-60
2022/07/10 12:12:01;;;;;;;1.53;1.03;;;15.90;99.90;;;;;;5022384;28;20846;-58
2022/07/10 12:14:28;;;;;;;1.57;1.33;;;15.40;99.90;;;;;;5022218;28;20464;-56
2022/07/10 12:16:57;;;;;;;2.90;1.43;;;15.20;99.90;;;;;;5022565;28;20441;-57
2022/07/10 12:19:33;;;;;;;2.15;1.30;;;15.30;99.90;;;;;;5022011;28;20699;-56
2022/07/10 12:22:01;;;;;;;2.33;1.20;;;15.70;99.90;;;;;;5022972;28;20189;-59
2022/07/10 12:24:28;;;;;;;4.60;1.30;;;16.30;99.90;;;;;;5006084;28;20460;-56
2022/07/10 12:26:56;;;;;;;2.20;1.33;;;17.10;99.90;;;;;;5023970;28;20434;-56
2022/07/10 12:29:25;;;;;;;1.50;1.17;;;17.80;99.90;;;;;;5021779;28;20445;-57
2022/07/10 12:31:56;;;;;;;1.73;1.20;;;18.70;99.90;;;;;;5021898;28;20470;-58
2022/07/10 12:34:34;;;;;;;2.70;1.37;;;19.40;99.90;;;;;;5021761;28;20443;-59
2022/07/10 12:37:09;;;;;;;2.80;1.97;;;19.90;99.90;;;;;;5022244;28;20435;-58
2022/07/10 12:39:45;;;;;;;5.40;1.23;;;20.10;99.90;;;;;;5022205;28;20430;-56
2022/07/10 12:42:13;;;;;;;1.87;1.00;;;20.50;99.90;;;;;;5021936;28;20611;-60
2022/07/10 12:44:48;;;;;;;1.07;1.03;;;20.80;99.90;;;;;;5021705;28;20499;-57
2022/07/10 12:47:22;;;;;;;1.43;1.30;;;21.00;99.90;;;;;;5021610;28;20440;-58
2022/07/10 12:50:17;;;;;;;2.60;1.40;;;20.50;99.90;;;;;;5021746;28;20761;-59
2022/07/10 12:52:44;;;;;;;1.23;1.13;;;19.60;99.90;;;;;;5019243;28;20453;-57
2022/07/10 12:55:25;;;;;;;0.70;0.70;;;18.60;99.90;;;;;;5021399;28;20450;-57
2022/07/10 12:57:57;;;;;;;3.47;1.00;;;18.10;99.90;;;;;;5021505;28;20434;-60
2022/07/10 13:00:25;;;;;;;1.67;0.80;;;17.80;99.90;;;;;;5021483;28;20452;-59
2022/07/10 13:03:10;;;;;;;2.70;1.10;;;17.70;99.90;;;;;;5021286;28;20442;-59
2022/07/10 13:05:38;;;;;;;1.37;1.27;;;17.80;99.90;;;;;;5021410;28;20444;-56
2022/07/10 13:08:24;;;;;;;1.10;0.80;;;18.20;99.90;;;;;;5021200;28;20787;-58
2022/07/10 13:10:58;;;;;;;1.10;0.70;;;18.70;99.90;;;;;;5021197;28;20763;-58
2022/07/10 13:13:25;;;;;;;2.30;1.30;;;18.80;99.90;;;;;;5021412;28;20558;-60
2022/07/10 13:16:00;;;;;;;5.17;2.00;;;19.00;99.90;;;;;;5021654;28;20481;-57
2022/07/10 13:18:28;;;;;;;1.60;0.90;;;19.30;99.90;;;;;;5021756;28;20426;-59
2022/07/10 13:20:58;;;;;;;3.57;1.73;;;19.90;99.90;;;;;;5021115;28;20783;-57